sensor_id;sensor_type;location;lat;lon;timestamp;pressure;altitude;pressure_sealevel;temperature;humidity
41202;BME280;26936;50.524;8.684;2023-02-11T00:00:00;101262.13;;;2.49;100.00
41202;BME280;26936;50.524;8.684;2023-02-11T00:02:25;101257.50;;;2.68;100.00
41202;BME280;26936;50.524;8.684;2023-02-11T00:04:53;101257.91;;;2.55;100.00
41202;BME280;26936;50.524;8.684;2023-02-11T00:07:19;101258.59;;;2.64;100.00
41202;BME280;26936;50.524;8.684;2023-02-11T00:09:44;101254.88;;;2.60;100.00
41202;BME280;26936;50.524;8.684;2023-02-11T00:12:09;101256.69;;;2.68;100.00
41202;BME280;26936;50.524;8.684;2023-02-11T00:14:34;101256.50;;;2.61;100.00
41202;BME280;26936;50.524;8.684;2023-02-11T00:16:59;101257.06;;;2.66;100.00
41202;BME280;26936;50.524;8.684;2023-02-11T00:19:25;101258.34;;;2.69;100.00
41202;BME280;26936;50.524;8.684;2023-02-11T00:21:50;101268.50;;;2.77;100.00
41202;BME280;26936;50.524;8.684;2023-02-11T00:24:15;101257.88;;;2.67;100.00
41202;BME280;26936;50.524;8.684;2023-02-11T00:26:40;101256.16;;;2.62;100.00
41202;BME280;26936;50.524;8.684;2023-02-11T00:29:06;101264.50;;;2.62;100.00
41202;BME280;26936;50.524;8.684;2023-02-11T00:31:32;101260.44;;;2.60;100.00
41202;BME280;26936;50.524;8.684;2023-02-11T00:33:57;101267.78;;;2.52;100.00
41202;BME280;26936;50.524;8.684;2023-02-11T00:36:24;101264.94;;;2.37;100.00
41202;BME280;26936;50.524;8.684;2023-02-11T00:38:52;101272.25;;;2.29;100.00
41202;BME280;26936;50.524;8.684;2023-02-11T00:41:18;101262.34;;;2.16;100.00
41202;BME280;26936;50.524;8.684;2023-02-11T00:43:44;101260.72;;;2.15;100.00
41202;BME280;26936;50.524;8.684;2023-02-11T00:46:09;101253.19;;;2.16;100.00
41202;BME280;26936;50.524;8.684;2023-02-11T00:48:35;101242.63;;;2.21;100.00
41202;BME280;26936;50.524;8.684;2023-02-11T00:51:00;101245.53;;;2.25;100.00
41202;BME280;26936;50.524;8.684;2023-02-11T00:53:26;101254.66;;;2.25;100.00
41202;BME280;26936;50.524;8.684;2023-02-11T00:55:51;101254.22;;;2.23;100.00
41202;BME280;26936;50.524;8.684;2023-02-11T00:58:16;101242.75;;;2.25;100.00
41202;BME280;26936;50.524;8.684;2023-02-11T01:00:42;101242.13;;;2.31;100.00
41202;BME280;26936;50.524;8.684;2023-02-11T01:03:07;101245.44;;;2.49;100.00
41202;BME280;26936;50.524;8.684;2023-02-11T01:05:32;101249.31;;;2.60;100.00
41202;BME280;26936;50.524;8.684;2023-02-11T01:07:58;101246.06;;;2.58;100.00
41202;BME280;26936;50.524;8.684;2023-02-11T01:10:23;101232.97;;;2.58;100.00
41202;BME280;26936;50.524;8.684;2023-02-11T01:12:49;101228.41;;;2.66;100.00
41202;BME280;26936;50.524;8.684;2023-02-11T01:15:16;101236.19;;;2.88;100.00
41202;BME280;26936;50.524;8.684;2023-02-11T01:17:41;101225.16;;;2.92;100.00
41202;BME280;26936;50.524;8.684;2023-02-11T01:20:11;101225.06;;;2.88;100.00
41202;BME280;26936;50.524;8.684;2023-02-11T01:22:37;101227.03;;;2.88;100.00
41202;BME280;26936;50.524;8.684;2023-02-11T01:25:04;101219.94;;;2.90;100.00
41202;BME280;26936;50.524;8.684;2023-02-11T01:27:30;101215.09;;;2.87;100.00
41202;BME280;26936;50.524;8.684;2023-02-11T01:29:55;101212.66;;;2.86;100.00
41202;BME280;26936;50.524;8.684;2023-02-11T01:32:20;101205.47;;;2.85;100.00
41202;BME280;26936;50.524;8.684;2023-02-11T01:34:45;101195.44;;;2.80;100.00
41202;BME280;26936;50.524;8.684;2023-02-11T01:37:11;101201.63;;;2.89;100.00
41202;BME280;26936;50.524;8.684;2023-02-11T01:39:36;101190.75;;;2.84;100.00
41202;BME280;26936;50.524;8.684;2023-02-11T01:42:02;101181.09;;;2.94;100.00
41202;BME280;26936;50.524;8.684;2023-02-11T01:44:31;101189.16;;;2.83;100.00
41202;BME280;26936;50.524;8.684;2023-02-11T01:46:57;101188.53;;;2.74;100.00
41202;BME280;26936;50.524;8.684;2023-02-11T01:49:37;101189.91;;;2.68;100.00
41202;BME280;26936;50.524;8.684;2023-02-11T01:52:07;101195.84;;;2.66;100.00
41202;BME280;26936;50.524;8.684;2023-02-11T01:54:39;101192.53;;;2.61;100.00
41202;BME280;26936;50.524;8.684;2023-02-11T01:57:26;101194.19;;;2.50;100.00
41202;BME280;26936;50.524;8.684;2023-02-11T02:00:00;101185.66;;;2.43;100.00
41202;BME280;26936;50.524;8.684;2023-02-11T02:08:16;101198.53;;;2.35;100.00
41202;BME280;26936;50.524;8.684;2023-02-11T02:10:44;101198.69;;;2.27;100.00
41202;BME280;26936;50.524;8.684;2023-02-11T02:13:10;101205.53;;;2.29;100.00
41202;BME280;26936;50.524;8.684;2023-02-11T02:15:37;101199.03;;;2.25;100.00
41202;BME280;26936;50.524;8.684;2023-02-11T02:37:35;101213.50;;;2.03;100.00
41202;BME280;26936;50.524;8.684;2023-02-11T02:40:08;101204.22;;;1.99;100.00
41202;BME280;26936;50.524;8.684;2023-02-11T02:42:38;101195.81;;;1.96;100.00
41202;BME280;26936;50.524;8.684;2023-02-11T02:45:06;101197.88;;;1.99;100.00
41202;BME280;26936;50.524;8.684;2023-02-11T02:47:31;101195.34;;;1.94;100.00
41202;BME280;26936;50.524;8.684;2023-02-11T02:49:57;101192.09;;;1.92;100.00
41202;BME280;26936;50.524;8.684;2023-02-11T02:52:36;101187.72;;;1.91;100.00
41202;BME280;26936;50.524;8.684;2023-02-11T02:55:24;101179.81;;;1.93;100.00
41202;BME280;26936;50.524;8.684;2023-02-11T02:58:16;101179.56;;;1.98;100.00
41202;BME280;26936;50.524;8.684;2023-02-11T03:06:45;101154.19;;;1.99;100.00
41202;BME280;26936;50.524;8.684;2023-02-11T03:09:24;101158.16;;;2.26;100.00
41202;BME280;26936;50.524;8.684;2023-02-11T03:11:52;101155.69;;;2.09;100.00
41202;BME280;26936;50.524;8.684;2023-02-11T03:14:18;101145.63;;;2.04;100.00
41202;BME280;26936;50.524;8.684;2023-02-11T03:16:46;101133.66;;;2.16;100.00
41202;BME280;26936;50.524;8.684;2023-02-11T03:19:22;101129.72;;;2.17;100.00
41202;BME280;26936;50.524;8.684;2023-02-11T03:21:50;101117.31;;;2.14;100.00
41202;BME280;26936;50.524;8.684;2023-02-11T03:24:23;101109.81;;;2.30;100.00
41202;BME280;26936;50.524;8.684;2023-02-11T03:26:54;101110.22;;;2.44;100.00
41202;BME280;26936;50.524;8.684;2023-02-11T03:29:36;101107.97;;;2.34;100.00
41202;BME280;26936;50.524;8.684;2023-02-11T03:32:31;101120.22;;;2.33;100.00
41202;BME280;26936;50.524;8.684;2023-02-11T03:35:10;101116.91;;;2.28;100.00
41202;BME280;26936;50.524;8.684;2023-02-11T03:37:42;101104.78;;;2.20;100.00
41202;BME280;26936;50.524;8.684;2023-02-11T03:40:23;101112.88;;;1.98;100.00
41202;BME280;26936;50.524;8.684;2023-02-11T03:43:08;101124.16;;;1.89;100.00
41202;BME280;26936;50.524;8.684;2023-02-11T03:45:35;101137.25;;;1.89;100.00
41202;BME280;26936;50.524;8.684;2023-02-11T03:48:15;101132.53;;;1.77;100.00
41202;BME280;26936;50.524;8.684;2023-02-11T03:50:43;101131.94;;;1.72;100.00
41202;BME280;26936;50.524;8.684;2023-02-11T03:53:10;101137.84;;;1.70;100.00
41202;BME280;26936;50.524;8.684;2023-02-11T03:55:38;101137.97;;;1.74;100.00
41202;BME280;26936;50.524;8.684;2023-02-11T03:58:04;101145.72;;;1.80;100.00
41202;BME280;26936;50.524;8.684;2023-02-11T04:00:31;101142.56;;;1.82;100.00
41202;BME280;26936;50.524;8.684;2023-02-11T04:02:57;101135.59;;;1.88;100.00
41202;BME280;26936;50.524;8.684;2023-02-11T04:05:22;101141.38;;;1.95;100.00
41202;BME280;26936;50.524;8.684;2023-02-11T04:07:47;101138.34;;;2.00;100.00
41202;BME280;26936;50.524;8.684;2023-02-11T04:10:13;101126.06;;;2.01;100.00
41202;BME280;26936;50.524;8.684;2023-02-11T04:12:38;101122.59;;;2.04;100.00
41202;BME280;26936;50.524;8.684;2023-02-11T04:15:04;101114.66;;;2.18;100.00
41202;BME280;26936;50.524;8.684;2023-02-11T04:17:29;101099.56;;;2.19;100.00
41202;BME280;26936;50.524;8.684;2023-02-11T04:19:54;101104.72;;;2.17;100.00
41202;BME280;26936;50.524;8.684;2023-02-11T04:22:20;101105.34;;;2.26;100.00
41202;BME280;26936;50.524;8.684;2023-02-11T04:24:45;101109.41;;;2.28;100.00
41202;BME280;26936;50.524;8.684;2023-02-11T04:27:10;101108.69;;;2.31;100.00
41202;BME280;26936;50.524;8.684;2023-02-11T04:29:36;101108.41;;;2.36;100.00
41202;BME280;26936;50.524;8.684;2023-02-11T04:32:01;101094.53;;;2.36;100.00
41202;BME280;26936;50.524;8.684;2023-02-11T04:34:26;101109.31;;;2.40;100.00
41202;BME280;26936;50.524;8.684;2023-02-11T04:36:52;101116.50;;;2.41;100.00
41202;BME280;26936;50.524;8.684;2023-02-11T04:39:17;101117.41;;;2.45;100.00
41202;BME280;26936;50.524;8.684;2023-02-11T04:41:43;101125.00;;;2.48;100.00
41202;BME280;26936;50.524;8.684;2023-02-11T04:44:08;101115.94;;;2.51;100.00
41202;BME280;26936;50.524;8.684;2023-02-11T04:46:34;101114.91;;;2.56;100.00
41202;BME280;26936;50.524;8.684;2023-02-11T04:48:59;101110.13;;;2.56;100.00
41202;BME280;26936;50.524;8.684;2023-02-11T04:51:24;101111.50;;;2.62;100.00
41202;BME280;26936;50.524;8.684;2023-02-11T04:53:49;101113.09;;;2.63;100.00
41202;BME280;26936;50.524;8.684;2023-02-11T04:56:15;101111.94;;;2.64;100.00
41202;BME280;26936;50.524;8.684;2023-02-11T04:58:40;101102.53;;;2.69;100.00
41202;BME280;26936;50.524;8.684;2023-02-11T05:01:10;101093.00;;;2.70;100.00
41202;BME280;26936;50.524;8.684;2023-02-11T05:03:36;101097.03;;;2.72;100.00
41202;BME280;26936;50.524;8.684;2023-02-11T05:06:02;101110.94;;;2.72;100.00
41202;BME280;26936;50.524;8.684;2023-02-11T05:08:27;101127.31;;;2.74;100.00
41202;BME280;26936;50.524;8.684;2023-02-11T05:10:53;101131.75;;;2.63;100.00
41202;BME280;26936;50.524;8.684;2023-02-11T05:13:18;101122.06;;;2.57;100.00
41202;BME280;26936;50.524;8.684;2023-02-11T05:15:43;101118.38;;;2.53;100.00
41202;BME280;26936;50.524;8.684;2023-02-11T05:18:09;101113.63;;;2.53;100.00
41202;BME280;26936;50.524;8.684;2023-02-11T05:20:37;101121.16;;;2.53;100.00
41202;BME280;26936;50.524;8.684;2023-02-11T05:23:02;101119.19;;;2.53;100.00
41202;BME280;26936;50.524;8.684;2023-02-11T05:25:27;101107.72;;;2.55;100.00
41202;BME280;26936;50.524;8.684;2023-02-11T05:27:52;101111.88;;;2.61;100.00
41202;BME280;26936;50.524;8.684;2023-02-11T05:30:18;101104.31;;;2.61;100.00
41202;BME280;26936;50.524;8.684;2023-02-11T05:32:43;101102.69;;;2.60;100.00
41202;BME280;26936;50.524;8.684;2023-02-11T05:35:08;101095.59;;;2.63;100.00
41202;BME280;26936;50.524;8.684;2023-02-11T05:37:34;101102.34;;;2.62;100.00
41202;BME280;26936;50.524;8.684;2023-02-11T05:39:59;101104.47;;;2.53;100.00
41202;BME280;26936;50.524;8.684;2023-02-11T05:42:24;101110.50;;;2.55;100.00
41202;BME280;26936;50.524;8.684;2023-02-11T05:44:50;101116.06;;;2.55;100.00
41202;BME280;26936;50.524;8.684;2023-02-11T05:47:15;101120.28;;;2.64;100.00
41202;BME280;26936;50.524;8.684;2023-02-11T05:49:40;101120.38;;;2.68;100.00
41202;BME280;26936;50.524;8.684;2023-02-11T05:52:05;101121.28;;;2.72;100.00
41202;BME280;26936;50.524;8.684;2023-02-11T05:54:31;101117.78;;;2.75;100.00
41202;BME280;26936;50.524;8.684;2023-02-11T05:56:56;101115.56;;;2.81;100.00
41202;BME280;26936;50.524;8.684;2023-02-11T05:59:21;101115.25;;;2.86;100.00
41202;BME280;26936;50.524;8.684;2023-02-11T06:01:46;101120.19;;;2.92;100.00
41202;BME280;26936;50.524;8.684;2023-02-11T06:04:12;101123.78;;;2.93;100.00
41202;BME280;26936;50.524;8.684;2023-02-11T06:06:37;101119.50;;;2.95;100.00
41202;BME280;26936;50.524;8.684;2023-02-11T06:09:02;101121.56;;;2.98;100.00
41202;BME280;26936;50.524;8.684;2023-02-11T06:11:28;101119.28;;;3.04;100.00
41202;BME280;26936;50.524;8.684;2023-02-11T06:13:53;101112.28;;;3.10;100.00
41202;BME280;26936;50.524;8.684;2023-02-11T06:16:18;101107.59;;;3.14;100.00
41202;BME280;26936;50.524;8.684;2023-02-11T06:18:43;101106.88;;;3.17;100.00
41202;BME280;26936;50.524;8.684;2023-02-11T06:21:10;101110.22;;;3.22;100.00
41202;BME280;26936;50.524;8.684;2023-02-11T06:23:35;101105.44;;;3.23;100.00
41202;BME280;26936;50.524;8.684;2023-02-11T06:26:06;101100.31;;;3.25;100.00
41202;BME280;26936;50.524;8.684;2023-02-11T06:28:32;101097.25;;;3.30;100.00
41202;BME280;26936;50.524;8.684;2023-02-11T06:30:58;101089.97;;;3.25;100.00
41202;BME280;26936;50.524;8.684;2023-02-11T06:33:28;101088.19;;;3.33;100.00
41202;BME280;26936;50.524;8.684;2023-02-11T06:35:53;101087.81;;;3.34;100.00
41202;BME280;26936;50.524;8.684;2023-02-11T06:38:18;101089.63;;;3.27;100.00
41202;BME280;26936;50.524;8.684;2023-02-11T06:40:47;101091.25;;;3.28;100.00
41202;BME280;26936;50.524;8.684;2023-02-11T06:43:13;101099.16;;;3.26;100.00
41202;BME280;26936;50.524;8.684;2023-02-11T06:45:38;101097.88;;;3.23;100.00
41202;BME280;26936;50.524;8.684;2023-02-11T06:48:04;101091.16;;;3.24;100.00
41202;BME280;26936;50.524;8.684;2023-02-11T06:50:29;101102.56;;;3.19;100.00
41202;BME280;26936;50.524;8.684;2023-02-11T06:52:54;101096.66;;;3.21;100.00
41202;BME280;26936;50.524;8.684;2023-02-11T06:55:19;101096.72;;;3.24;100.00
41202;BME280;26936;50.524;8.684;2023-02-11T06:57:45;101104.72;;;3.26;100.00
41202;BME280;26936;50.524;8.684;2023-02-11T07:00:10;101107.97;;;3.28;100.00
41202;BME280;26936;50.524;8.684;2023-02-11T07:02:36;101093.31;;;3.31;100.00
41202;BME280;26936;50.524;8.684;2023-02-11T07:05:01;101103.34;;;3.35;100.00
41202;BME280;26936;50.524;8.684;2023-02-11T07:07:26;101104.94;;;3.36;100.00
41202;BME280;26936;50.524;8.684;2023-02-11T07:09:52;101117.19;;;3.32;100.00
41202;BME280;26936;50.524;8.684;2023-02-11T07:12:17;101107.81;;;3.40;100.00
41202;BME280;26936;50.524;8.684;2023-02-11T07:14:42;101112.84;;;3.50;100.00
41202;BME280;26936;50.524;8.684;2023-02-11T07:17:07;101106.25;;;3.58;100.00
41202;BME280;26936;50.524;8.684;2023-02-11T07:19:33;101114.41;;;3.66;100.00
41202;BME280;26936;50.524;8.684;2023-02-11T07:21:58;101119.47;;;3.80;100.00
41202;BME280;26936;50.524;8.684;2023-02-11T07:24:23;101136.13;;;3.95;100.00
41202;BME280;26936;50.524;8.684;2023-02-11T07:26:49;101132.03;;;4.08;100.00
41202;BME280;26936;50.524;8.684;2023-02-11T07:29:14;101137.75;;;4.15;100.00
41202;BME280;26936;50.524;8.684;2023-02-11T07:31:39;101133.63;;;4.29;100.00
41202;BME280;26936;50.524;8.684;2023-02-11T07:34:04;101129.50;;;4.42;100.00
41202;BME280;26936;50.524;8.684;2023-02-11T07:36:30;101132.75;;;4.44;100.00
41202;BME280;26936;50.524;8.684;2023-02-11T07:38:59;101130.50;;;4.53;99.81
41202;BME280;26936;50.524;8.684;2023-02-11T07:41:25;101133.69;;;4.51;100.00
41202;BME280;26936;50.524;8.684;2023-02-11T07:43:50;101140.38;;;4.47;100.00
41202;BME280;26936;50.524;8.684;2023-02-11T07:46:23;101145.94;;;4.28;100.00
41202;BME280;26936;50.524;8.684;2023-02-11T07:48:49;101151.97;;;4.30;100.00
41202;BME280;26936;50.524;8.684;2023-02-11T07:51:20;101155.72;;;4.18;100.00
41202;BME280;26936;50.524;8.684;2023-02-11T07:53:46;101155.16;;;4.09;100.00
41202;BME280;26936;50.524;8.684;2023-02-11T07:56:13;101158.88;;;4.16;100.00
41202;BME280;26936;50.524;8.684;2023-02-11T07:58:39;101160.19;;;4.03;100.00
41202;BME280;26936;50.524;8.684;2023-02-11T08:01:08;101160.56;;;4.02;100.00
41202;BME280;26936;50.524;8.684;2023-02-11T08:03:35;101169.16;;;4.12;100.00
41202;BME280;26936;50.524;8.684;2023-02-11T08:06:05;101164.09;;;4.18;100.00
41202;BME280;26936;50.524;8.684;2023-02-11T08:08:31;101166.88;;;4.18;100.00
41202;BME280;26936;50.524;8.684;2023-02-11T08:10:56;101158.88;;;4.16;100.00
41202;BME280;26936;50.524;8.684;2023-02-11T08:13:22;101166.44;;;4.16;100.00
41202;BME280;26936;50.524;8.684;2023-02-11T08:15:47;101172.38;;;4.14;100.00
41202;BME280;26936;50.524;8.684;2023-02-11T08:18:12;101165.19;;;4.13;100.00
41202;BME280;26936;50.524;8.684;2023-02-11T08:20:38;101167.41;;;4.24;100.00
41202;BME280;26936;50.524;8.684;2023-02-11T08:23:05;101166.22;;;4.25;100.00
41202;BME280;26936;50.524;8.684;2023-02-11T08:25:31;101148.88;;;4.35;100.00
41202;BME280;26936;50.524;8.684;2023-02-11T08:27:57;101161.31;;;4.37;100.00
41202;BME280;26936;50.524;8.684;2023-02-11T08:30:22;101163.34;;;4.40;100.00
41202;BME280;26936;50.524;8.684;2023-02-11T08:32:48;101173.78;;;4.43;100.00
41202;BME280;26936;50.524;8.684;2023-02-11T08:35:13;101162.41;;;4.52;100.00
41202;BME280;26936;50.524;8.684;2023-02-11T08:37:38;101168.09;;;4.59;100.00
41202;BME280;26936;50.524;8.684;2023-02-11T08:40:04;101162.31;;;4.48;100.00
41202;BME280;26936;50.524;8.684;2023-02-11T08:42:29;101171.91;;;4.51;100.00
41202;BME280;26936;50.524;8.684;2023-02-11T08:44:55;101171.13;;;4.50;100.00
41202;BME280;26936;50.524;8.684;2023-02-11T08:47:20;101175.16;;;4.53;100.00
41202;BME280;26936;50.524;8.684;2023-02-11T08:49:45;101176.38;;;4.55;100.00
41202;BME280;26936;50.524;8.684;2023-02-11T08:52:10;101168.53;;;4.61;100.00
41202;BME280;26936;50.524;8.684;2023-02-11T08:54:36;101179.69;;;4.61;100.00
41202;BME280;26936;50.524;8.684;2023-02-11T08:57:01;101184.91;;;4.62;100.00
41202;BME280;26936;50.524;8.684;2023-02-11T08:59:27;101182.94;;;4.63;100.00
41202;BME280;26936;50.524;8.684;2023-02-11T09:01:52;101198.63;;;4.71;100.00
41202;BME280;26936;50.524;8.684;2023-02-11T09:04:18;101192.38;;;4.77;100.00
41202;BME280;26936;50.524;8.684;2023-02-11T09:06:43;101203.25;;;4.82;100.00
41202;BME280;26936;50.524;8.684;2023-02-11T09:09:11;101211.31;;;4.68;100.00
41202;BME280;26936;50.524;8.684;2023-02-11T09:11:37;101205.59;;;4.80;100.00
41202;BME280;26936;50.524;8.684;2023-02-11T09:14:04;101203.91;;;4.76;100.00
41202;BME280;26936;50.524;8.684;2023-02-11T09:16:34;101197.97;;;4.77;100.00
41202;BME280;26936;50.524;8.684;2023-02-11T09:19:00;101189.72;;;4.84;100.00
41202;BME280;26936;50.524;8.684;2023-02-11T09:21:26;101196.53;;;4.87;100.00
41202;BME280;26936;50.524;8.684;2023-02-11T09:23:52;101196.97;;;4.89;100.00
41202;BME280;26936;50.524;8.684;2023-02-11T09:26:23;101193.81;;;4.90;100.00
41202;BME280;26936;50.524;8.684;2023-02-11T09:28:49;101189.06;;;4.91;100.00
41202;BME280;26936;50.524;8.684;2023-02-11T09:31:18;101190.22;;;4.90;100.00
41202;BME280;26936;50.524;8.684;2023-02-11T09:33:45;101201.16;;;4.98;100.00
41202;BME280;26936;50.524;8.684;2023-02-11T09:36:15;101212.69;;;4.97;100.00
41202;BME280;26936;50.524;8.684;2023-02-11T09:38:41;101211.94;;;5.00;100.00
41202;BME280;26936;50.524;8.684;2023-02-11T09:43:54;101203.38;;;4.89;100.00
41202;BME280;26936;50.524;8.684;2023-02-11T09:46:22;101206.19;;;4.89;100.00
41202;BME280;26936;50.524;8.684;2023-02-11T09:48:51;101215.28;;;4.86;100.00
41202;BME280;26936;50.524;8.684;2023-02-11T09:51:39;101216.16;;;4.90;100.00
41202;BME280;26936;50.524;8.684;2023-02-11T09:54:17;101215.28;;;4.86;100.00
41202;BME280;26936;50.524;8.684;2023-02-11T09:56:43;101218.06;;;4.86;100.00
41202;BME280;26936;50.524;8.684;2023-02-11T09:59:12;101219.47;;;4.96;100.00
41202;BME280;26936;50.524;8.684;2023-02-11T10:02:06;101220.44;;;4.84;100.00
41202;BME280;26936;50.524;8.684;2023-02-11T10:04:48;101224.31;;;4.80;100.00
41202;BME280;26936;50.524;8.684;2023-02-11T10:07:38;101216.31;;;4.78;100.00
41202;BME280;26936;50.524;8.684;2023-02-11T10:13:28;101223.22;;;4.84;100.00
41202;BME280;26936;50.524;8.684;2023-02-11T10:16:24;101228.38;;;4.82;100.00
41202;BME280;26936;50.524;8.684;2023-02-11T10:19:03;101229.19;;;4.83;100.00
41202;BME280;26936;50.524;8.684;2023-02-11T10:24:15;101223.78;;;4.93;100.00
41202;BME280;26936;50.524;8.684;2023-02-11T10:26:42;101217.34;;;4.89;100.00
41202;BME280;26936;50.524;8.684;2023-02-11T10:29:37;101212.84;;;4.85;100.00
41202;BME280;26936;50.524;8.684;2023-02-11T10:32:21;101214.59;;;4.93;100.00
41202;BME280;26936;50.524;8.684;2023-02-11T10:34:51;101215.84;;;4.95;100.00
41202;BME280;26936;50.524;8.684;2023-02-11T10:37:19;101211.00;;;4.92;100.00
41202;BME280;26936;50.524;8.684;2023-02-11T10:39:45;101218.03;;;5.05;100.00
41202;BME280;26936;50.524;8.684;2023-02-11T10:42:11;101224.72;;;5.01;100.00
41202;BME280;26936;50.524;8.684;2023-02-11T10:44:40;101227.50;;;5.01;100.00
41202;BME280;26936;50.524;8.684;2023-02-11T10:47:16;101228.03;;;5.06;100.00
41202;BME280;26936;50.524;8.684;2023-02-11T10:49:46;101228.59;;;5.15;100.00
41202;BME280;26936;50.524;8.684;2023-02-11T10:52:23;101229.69;;;5.11;100.00
41202;BME280;26936;50.524;8.684;2023-02-11T10:57:36;101229.44;;;5.19;100.00
41202;BME280;26936;50.524;8.684;2023-02-11T11:02:42;101233.50;;;5.22;100.00
41202;BME280;26936;50.524;8.684;2023-02-11T11:05:17;101239.13;;;5.25;100.00
41202;BME280;26936;50.524;8.684;2023-02-11T11:07:55;101241.13;;;5.25;100.00
41202;BME280;26936;50.524;8.684;2023-02-11T11:11:01;101226.84;;;5.30;100.00
41202;BME280;26936;50.524;8.684;2023-02-11T11:18:47;101236.00;;;5.27;100.00
41202;BME280;26936;50.524;8.684;2023-02-11T11:21:29;101237.97;;;5.26;100.00
41202;BME280;26936;50.524;8.684;2023-02-11T11:23:59;101233.97;;;5.27;100.00
41202;BME280;26936;50.524;8.684;2023-02-11T11:26:28;101230.34;;;5.23;100.00
41202;BME280;26936;50.524;8.684;2023-02-11T11:29:15;101225.50;;;5.20;100.00
41202;BME280;26936;50.524;8.684;2023-02-11T11:31:48;101230.34;;;5.23;100.00
41202;BME280;26936;50.524;8.684;2023-02-11T11:34:30;101225.53;;;5.24;100.00
41202;BME280;26936;50.524;8.684;2023-02-11T11:36:58;101219.84;;;5.39;100.00
41202;BME280;26936;50.524;8.684;2023-02-11T11:39:31;101215.06;;;5.40;100.00
41202;BME280;26936;50.524;8.684;2023-02-11T11:42:00;101220.53;;;5.33;100.00
41202;BME280;26936;50.524;8.684;2023-02-11T11:44:36;101226.28;;;5.21;100.00
41202;BME280;26936;50.524;8.684;2023-02-11T11:47:18;101228.31;;;5.24;100.00
41202;BME280;26936;50.524;8.684;2023-02-11T11:49:55;101231.13;;;5.24;100.00
41202;BME280;26936;50.524;8.684;2023-02-11T11:52:39;101232.63;;;5.18;100.00
41202;BME280;26936;50.524;8.684;2023-02-11T11:55:20;101223.72;;;5.12;100.00
41202;BME280;26936;50.524;8.684;2023-02-11T11:57:46;101239.03;;;5.18;100.00
41202;BME280;26936;50.524;8.684;2023-02-11T12:00:15;101234.59;;;5.17;100.00
41202;BME280;26936;50.524;8.684;2023-02-11T12:02:59;101229.16;;;5.24;100.00
41202;BME280;26936;50.524;8.684;2023-02-11T12:05:51;101223.41;;;5.17;100.00
41202;BME280;26936;50.524;8.684;2023-02-11T12:08:55;101216.75;;;5.22;100.00
41202;BME280;26936;50.524;8.684;2023-02-11T12:14:11;101212.44;;;5.28;100.00
41202;BME280;26936;50.524;8.684;2023-02-11T12:17:06;101209.16;;;5.22;100.00
41202;BME280;26936;50.524;8.684;2023-02-11T12:25:25;101212.44;;;5.28;100.00
41202;BME280;26936;50.524;8.684;2023-02-11T12:27:59;101212.88;;;5.30;100.00
41202;BME280;26936;50.524;8.684;2023-02-11T12:36:10;101215.09;;;5.43;100.00
41202;BME280;26936;50.524;8.684;2023-02-11T12:39:33;101210.50;;;5.54;100.00
41202;BME280;26936;50.524;8.684;2023-02-11T12:41:44;101214.41;;;5.50;100.00
41202;BME280;26936;50.524;8.684;2023-02-11T12:47:38;101201.94;;;5.44;100.00
41202;BME280;26936;50.524;8.684;2023-02-11T12:50:10;101197.16;;;5.44;100.00
41202;BME280;26936;50.524;8.684;2023-02-11T12:53:16;101190.06;;;5.50;100.00
41202;BME280;26936;50.524;8.684;2023-02-11T12:55:48;101195.34;;;5.55;100.00
41202;BME280;26936;50.524;8.684;2023-02-11T12:58:20;101193.75;;;5.58;100.00
41202;BME280;26936;50.524;8.684;2023-02-11T13:00:51;101194.25;;;5.64;100.00
41202;BME280;26936;50.524;8.684;2023-02-11T13:03:43;101189.13;;;5.66;100.00
41202;BME280;26936;50.524;8.684;2023-02-11T13:06:15;101185.03;;;5.60;100.00
41202;BME280;26936;50.524;8.684;2023-02-11T13:09:03;101181.84;;;5.61;100.00
41202;BME280;26936;50.524;8.684;2023-02-11T13:11:40;101171.06;;;5.60;100.00
41202;BME280;26936;50.524;8.684;2023-02-11T13:14:23;101165.59;;;5.70;100.00
41202;BME280;26936;50.524;8.684;2023-02-11T13:16:50;101178.44;;;5.75;100.00
41202;BME280;26936;50.524;8.684;2023-02-11T13:19:30;101176.72;;;5.67;100.00
41202;BME280;26936;50.524;8.684;2023-02-11T13:22:22;101192.34;;;5.68;100.00
41202;BME280;26936;50.524;8.684;2023-02-11T13:24:54;101176.78;;;5.70;100.00
41202;BME280;26936;50.524;8.684;2023-02-11T13:27:35;101175.66;;;5.75;100.00
41202;BME280;26936;50.524;8.684;2023-02-11T13:37:58;101174.00;;;5.70;100.00
41202;BME280;26936;50.524;8.684;2023-02-11T13:40:26;101188.03;;;5.74;100.00
41202;BME280;26936;50.524;8.684;2023-02-11T13:42:56;101182.38;;;5.70;100.00
41202;BME280;26936;50.524;8.684;2023-02-11T13:45:42;101183.53;;;5.66;100.00
41202;BME280;26936;50.524;8.684;2023-02-11T13:48:19;101181.94;;;5.68;100.00
41202;BME280;26936;50.524;8.684;2023-02-11T13:50:48;101182.31;;;5.67;100.00
41202;BME280;26936;50.524;8.684;2023-02-11T13:53:15;101176.47;;;5.75;100.00
41202;BME280;26936;50.524;8.684;2023-02-11T13:55:46;101183.19;;;5.71;100.00
41202;BME280;26936;50.524;8.684;2023-02-11T13:58:36;101178.81;;;5.73;100.00
41202;BME280;26936;50.524;8.684;2023-02-11T14:01:05;101175.28;;;5.76;100.00
41202;BME280;26936;50.524;8.684;2023-02-11T14:03:34;101164.66;;;5.85;100.00
41202;BME280;26936;50.524;8.684;2023-02-11T14:06:19;101170.56;;;5.80;100.00
41202;BME280;26936;50.524;8.684;2023-02-11T14:11:49;101164.47;;;6.01;100.00
41202;BME280;26936;50.524;8.684;2023-02-11T14:14:32;101173.25;;;5.99;100.00
41202;BME280;26936;50.524;8.684;2023-02-11T14:19:40;101177.63;;;5.97;100.00
41202;BME280;26936;50.524;8.684;2023-02-11T14:22:18;101185.94;;;5.93;100.00
41202;BME280;26936;50.524;8.684;2023-02-11T14:24:47;101189.41;;;5.83;100.00